Latest Weather Observations for Hughenden

IDQ60801

Issued at 10:42 am EST Thursday 21 November 2019 (issued every 10 minutes, with the page automatically refreshed every 10 minutes)

About weather observations | Map of weather stations | Latest weather observations for QLD | Other Formats
Station Details ID: 030022 Name: HUGHENDEN AIRPORT Lat: -20.82 Lon: 144.23 Height: 316.4 m
Data from the previous 72 hours. | See also: Recent months at Hughenden
Date/Time
EST
Temp
°C
App
Temp
°C
Dew
Point
°C
Rel
Hum
%
Delta-T
°C
Wind Press
QNH
hPa
Press
MSL
hPa
Rain since
9am
mm
Dir  Spd
km/h
Gust
km/h
Spd
kts
Gust
kts
21/10:30am 35.6 31.3 6.8 17 16.1 NE 19 26 10 14 1013.3 1011.1 0.0
21/10:00am 35.1 31.4 6.4 17 15.9 NNE 15 24 8 13 1013.6 1011.3 0.0
21/09:30am 34.1 29.3 5.6 17 15.5 NE 20 28 11 15 1013.9 1011.6 0.0
21/09:00am 33.0 28.2 5.5 18 14.9 NE 20 28 11 15 1014.1 1011.8 0.0
21/08:30am 32.3 27.1 5.7 19 14.4 NE 22 30 12 16 1014.2 1011.9 0.0
21/08:00am 31.2 27.3 7.0 22 13.3 NE 17 24 9 13 1014.0 1011.7 0.0
21/07:30am 30.2 26.7 7.4 24 12.5 NE 15 22 8 12 1013.9 1011.6 0.0
21/07:00am 28.7 25.9 8.4 28 11.3 NE 13 17 7 9 1013.6 1011.3 0.0
21/06:30am 27.0 24.7 7.5 29 10.6 NE 9 15 5 8 1013.0 1010.8 0.0
21/06:00am 26.7 22.9 7.7 30 10.3 NE 17 24 9 13 1012.4 1010.2 0.0
21/05:30am 26.8 22.4 7.3 29 10.5 ENE 20 28 11 15 1011.8 1009.6 0.0
21/05:00am 26.9 23.3 6.9 28 10.7 ENE 15 22 8 12 1011.6 1009.3 0.0
21/04:30am 27.2 23.7 7.1 28 10.8 ENE 15 19 8 10 1011.3 1009.0 0.0
21/04:00am 27.0 24.0 7.5 29 10.6 ENE 13 15 7 8 1011.2 1008.9 0.0
21/03:30am 27.1 24.4 7.5 29 10.6 ENE 11 17 6 9 1011.0 1008.7 0.0
21/03:00am 27.3 25.4 7.7 29 10.7 NE 7 9 4 5 1011.0 1008.7 0.0
21/02:30am 28.0 25.4 7.8 28 11.1 NE 11 13 6 7 1010.8 1008.5 0.0
21/02:00am 28.7 25.7 7.9 27 11.5 NNE 13 15 7 8 1010.9 1008.6 0.0
21/01:30am 29.4 26.1 7.9 26 11.9 NNE 15 20 8 11 1011.2 1008.9 0.0
21/01:00am 29.5 26.2 8.0 26 11.9 NNE 15 20 8 11 1011.2 1008.9 0.0
21/12:30am 29.9 26.7 8.3 26 12.0 NE 15 19 8 10 1011.3 1009.0 0.0
21/12:00am 30.6 26.0 8.3 25 12.5 NE 22 33 12 18 1011.3 1009.0 0.0
 
Date/Time
EST
Temp
°C
App
Temp
°C
Dew
Point
°C
Rel
Hum
%
Delta-T
°C
Wind Press
QNH
hPa
Press
MSL
hPa
Rain since
9am
mm
Dir  Spd
km/h
Gust
km/h
Spd
kts
Gust
kts
20/11:30pm 31.1 26.3 8.8 25 12.6 NE 24 30 13 16 1011.3 1009.0 0.0
20/11:00pm 31.5 26.2 9.7 26 12.5 NE 28 37 15 20 1011.2 1008.9 0.0
20/10:48pm 31.8 27.3 9.9 26 12.6 NE 24 41 13 22 1011.2 1008.9 0.0
20/10:30pm 30.1 28.2 9.1 27 11.9 NE 9 17 5 9 1011.2 1008.9 0.0
20/10:00pm 31.1 30.0 9.9 27 12.2 NNW 6 7 3 4 1010.7 1008.4 0.0
20/09:30pm 31.8 30.1 9.9 26 12.6 N 9 13 5 7 1010.3 1008.0 0.0
20/09:00pm 32.9 30.1 8.4 22 13.9 N 13 17 7 9 1009.9 1007.7 0.0
20/08:30pm 33.3 30.8 8.0 21 14.3 NNW 11 13 6 7 1009.8 1007.6 0.0
20/08:00pm 32.3 29.7 7.9 22 13.7 W 11 13 6 7 1009.4 1007.2 0.0
20/07:30pm 33.5 30.5 7.5 20 14.6 W 13 22 7 12 1009.0 1006.8 0.0
20/07:00pm 34.8 30.9 7.0 18 15.6 NW 17 22 9 12 1008.5 1006.2 0.0
20/06:30pm 35.7 31.2 6.9 17 16.1 NW 20 28 11 15 1008.0 1005.7 0.0
20/06:00pm 36.8 33.4 5.9 15 17.2 NE 13 20 7 11 1007.6 1005.3 0.0
20/05:30pm 39.0 34.9 4.4 12 19.0 E 15 20 8 11 1007.0 1004.7 0.0
20/05:00pm 39.6 35.4 3.7 11 19.6 ESE 15 24 8 13 1006.6 1004.4 0.0
20/04:30pm 40.0 35.5 4.0 11 19.7 ESE 17 24 9 13 1006.4 1004.2 0.0
20/04:00pm 39.7 35.1 3.7 11 19.7 ESE 17 30 9 16 1006.3 1004.1 0.0
20/03:30pm 39.8 36.0 3.8 11 19.6 E 13 28 7 15 1006.6 1004.4 0.0
20/03:00pm 40.3 35.2 4.2 11 19.9 ESE 20 30 11 16 1007.2 1004.9 0.0
20/02:30pm 39.8 37.0 5.1 12 19.3 SSW 9 15 5 8 1007.6 1005.3 0.0
20/02:00pm 39.7 35.7 5.0 12 19.3 E 15 28 8 15 1008.1 1005.8 0.0
20/01:30pm 39.0 35.9 5.6 13 18.6 ENE 11 20 6 11 1008.6 1006.3 0.0
20/01:00pm 39.9 36.2 6.3 13 19.1 ESE 15 28 8 15 1009.2 1007.0 0.0
20/12:30pm 38.2 34.2 5.0 13 18.3 NE 15 24 8 13 1009.8 1007.6 0.0
20/12:00pm 38.0 35.0 5.9 14 17.9 NNE 11 28 6 15 1010.3 1008.0 0.0
20/11:30am 37.4 35.2 5.4 14 17.7 NNW 6 11 3 6 1010.8 1008.5 0.0
20/11:00am 37.6 34.7 6.6 15 17.5 ENE 11 28 6 15 1011.1 1008.8 0.0
20/10:30am 36.6 33.7 6.7 16 16.8 NNE 11 20 6 11 1011.6 1009.3 0.0
20/10:00am 35.9 33.1 7.0 17 16.2 NNE 11 20 6 11 1012.0 1009.8 0.0
20/09:30am 34.9 32.5 8.6 20 15.1 NNE 11 17 6 9 1012.1 1009.9 0.0
20/09:00am 33.4 30.1 9.4 23 13.8 NNE 17 24 9 13 1012.4 1010.2 0.0
20/08:30am 32.1 28.8 9.6 25 12.9 NNE 17 20 9 11 1012.4 1010.2 0.0
20/08:00am 31.0 27.5 10.9 29 11.7 ENE 20 26 11 14 1012.4 1010.2 0.0
20/07:30am 30.2 27.0 11.2 31 11.1 ENE 19 26 10 14 1012.4 1010.2 0.0
20/07:00am 28.4 25.9 11.0 34 10.1 ENE 15 20 8 11 1012.1 1009.9 0.0
20/06:30am 27.5 25.1 11.5 37 9.3 NE 15 19 8 10 1011.8 1009.6 0.0
20/06:00am 27.6 25.5 11.2 36 9.5 NE 13 17 7 9 1011.6 1009.3 0.0
20/05:30am 27.9 25.8 11.0 35 9.7 ENE 13 20 7 11 1011.3 1009.0 0.0
20/05:00am 27.8 25.4 10.1 33 10.1 ENE 13 15 7 8 1010.9 1008.6 0.0
20/04:30am 27.9 25.7 9.2 31 10.5 NE 11 13 6 7 1010.5 1008.2 0.0
20/04:00am 28.2 26.2 8.5 29 10.9 NE 9 11 5 6 1010.2 1007.9 0.0
20/03:30am 28.9 26.5 8.6 28 11.3 NE 11 15 6 8 1009.8 1007.6 0.0
20/03:00am 29.4 26.2 8.5 27 11.7 NE 15 19 8 10 1009.5 1007.3 0.0
20/02:30am 29.5 26.3 8.5 27 11.7 NE 15 17 8 9 1009.5 1007.3 0.0
20/02:00am 29.7 26.2 8.7 27 11.8 NE 17 24 9 13 1009.5 1007.3 0.0
20/01:30am 29.7 26.8 9.8 29 11.4 NE 15 20 8 11 1009.6 1007.4 0.0
20/01:00am 30.4 27.2 9.8 28 11.8 NE 17 22 9 12 1009.6 1007.4 0.0
20/12:30am 30.7 27.4 9.6 27 12.1 NE 17 20 9 11 1009.7 1007.5 0.0
20/12:00am 31.2 27.9 9.4 26 12.5 NE 17 24 9 13 1010.2 1007.9 0.0
 
Date/Time
EST
Temp
°C
App
Temp
°C
Dew
Point
°C
Rel
Hum
%
Delta-T
°C
Wind Press
QNH
hPa
Press
MSL
hPa
Rain since
9am
mm
Dir  Spd
km/h
Gust
km/h
Spd
kts
Gust
kts
19/11:30pm 31.8 27.3 8.7 24 13.1 NE 22 32 12 17 1010.4 1008.1 0.0
19/11:00pm 31.8 28.1 6.1 20 14.0 NE 15 24 8 13 1010.5 1008.2 0.0
19/10:30pm 32.4 29.0 5.8 19 14.4 ENE 13 15 7 8 1010.3 1008.0 0.0
19/10:00pm 33.6 29.1 6.0 18 15.1 ENE 19 26 10 14 1010.2 1007.9 0.0
19/09:30pm 34.4 29.5 5.0 16 15.9 ENE 20 26 11 14 1009.8 1007.6 0.0
19/09:00pm 34.6 29.7 4.2 15 16.3 E 19 24 10 13 1009.5 1007.3 0.0
19/08:30pm 32.5 28.6 3.5 16 15.1 ESE 13 15 7 8 1009.2 1007.0 0.0
19/08:00pm 33.3 29.2 2.2 14 16.0 ESE 13 15 7 8 1009.0 1006.8 0.0
19/07:30pm 33.8 29.6 1.6 13 16.4 ESE 13 15 7 8 1008.6 1006.3 0.0
19/07:00pm 34.9 31.6 2.4 13 16.9 ESE 9 13 5 7 1008.2 1005.9 0.0
19/06:30pm 36.7 33.4 2.7 12 17.9 SE 9 11 5 6 1007.9 1005.6 0.0
19/06:00pm 38.4 36.9 2.8 11 19.0 CALM 0 0 0 0 1007.6 1005.3 0.0
19/05:30pm 38.8 35.8 1.7 10 19.5 SSW 7 11 4 6 1007.2 1004.9 0.0
19/05:00pm 39.1 35.3 1.9 10 19.7 SW 11 15 6 8 1006.9 1004.6 0.0
19/04:30pm 39.6 35.5 2.3 10 19.9 SW 13 20 7 11 1006.9 1004.6 0.0
19/04:00pm 40.2 35.6 1.3 9 20.5 S 15 26 8 14 1007.0 1004.7 0.0
19/03:30pm 41.0 35.7 1.9 9 20.9 WSW 19 28 10 15 1007.2 1004.9 0.0
19/03:00pm 40.1 36.8 2.7 10 20.2 SSE 9 17 5 9 1007.6 1005.3 0.0
19/02:30pm 40.8 37.2 3.2 10 20.4 SSE 11 24 6 13 1007.9 1005.6 0.0
19/02:00pm 40.4 36.8 2.9 10 20.3 E 11 17 6 9 1008.3 1006.0 0.0
19/01:30pm 39.8 35.4 2.5 10 20.0 NE 15 22 8 12 1008.8 1006.5 0.0
19/01:00pm 39.0 35.1 3.2 11 19.3 E 13 26 7 14 1009.3 1007.1 0.0
19/12:30pm 39.6 36.9 3.7 11 19.5 E 7 15 4 8 1009.8 1007.6 0.0
19/12:00pm 38.0 34.9 3.7 12 18.5 ENE 9 15 5 8 1010.4 1008.1 0.0
19/11:30am 38.3 35.5 5.0 13 18.4 ENE 9 17 5 9 1010.9 1008.6 0.0
19/11:00am 38.0 34.7 4.8 13 18.2 NNE 11 24 6 13 1011.4 1009.1 0.0
19/10:30am 37.4 32.9 4.4 13 18.0 NNW 17 28 9 15 1011.8 1009.6 0.0
19/10:00am 37.2 34.0 5.3 14 17.6 N 11 28 6 15 1012.1 1009.9 0.0
19/09:30am 35.3 31.7 6.6 17 16.0 NNW 15 19 8 10 1012.6 1010.4 0.0
19/09:00am 34.0 30.1 7.1 19 15.0 N 17 26 9 14 1012.8 1010.6 0.0
19/08:30am 32.3 28.4 7.2 21 13.9 NNE 17 22 9 12 1012.9 1010.7 0.0
19/08:00am 31.0 27.3 8.1 24 12.8 NE 17 20 9 11 1013.0 1010.8 0.0
19/07:30am 29.6 25.4 7.5 25 12.1 NE 19 24 10 13 1012.8 1010.6 0.0
19/07:00am 28.8 25.5 7.9 27 11.5 NE 15 20 8 11 1012.7 1010.5 0.0
19/06:30am 26.3 23.7 7.8 31 10.0 E 11 11 6 6 1012.4 1010.2 0.0
19/06:00am 24.0 20.9 7.2 34 8.9 ESE 13 17 7 9 1012.1 1009.9 0.0
19/05:30am 23.1 19.0 6.4 34 8.7 ESE 17 19 9 10 1011.7 1009.4 0.0
19/05:00am 22.5 19.9 6.3 35 8.4 E 9 11 5 6 1011.2 1008.9 0.0
19/04:30am 23.9 21.7 6.2 32 9.2 ENE 7 9 4 5 1011.0 1008.7 0.0
19/04:00am 23.7 21.2 6.5 33 9.0 E 9 11 5 6 1010.7 1008.4 0.0
19/03:30am 23.1 19.3 4.1 29 9.5 ESE 13 13 7 7 1010.5 1008.2 0.0
19/03:00am 23.4 19.3 2.3 25 10.2 ESE 13 13 7 7 1010.4 1008.1 0.0
19/02:30am 23.2 19.3 0.9 23 10.5 ESE 11 13 6 7 1010.4 1008.1 0.0
19/02:00am 22.8 18.5 -1.3 20 10.8 ESE 11 13 6 7 1010.5 1008.2 0.0
19/01:30am 24.0 20.6 -0.3 20 11.2 ENE 7 11 4 6 1010.6 1008.3 0.0
19/01:00am 24.0 21.5 -4.2 15 12.1 CALM 0 0 0 0 1010.8 1008.5 0.0
19/12:30am 25.7 22.0 -4.7 13 13.1 E 6 9 3 5 1010.9 1008.6 0.0
19/12:00am 26.3 22.0 -5.3 12 13.6 E 9 13 5 7 1011.2 1008.9 0.0
 
Date/Time
EST
Temp
°C
App
Temp
°C
Dew
Point
°C
Rel
Hum
%
Delta-T
°C
Wind Press
QNH
hPa
Press
MSL
hPa
Rain since
9am
mm
Dir  Spd
km/h
Gust
km/h
Spd
kts
Gust
kts
18/11:30pm 28.5 23.1 -4.8 11 14.7 ENE 15 22 8 12 1011.5 1009.2 0.0
18/11:00pm 27.2 22.0 -5.8 11 14.1 SE 13 15 7 8 1011.1 1008.8 0.0
18/10:30pm 27.1 21.9 -5.9 11 14.1 SE 13 15 7 8 1011.0 1008.7 0.0
18/10:00pm 27.4 22.6 -5.6 11 14.2 SSE 11 13 6 7 1011.1 1008.8 0.0
18/09:30pm 26.8 22.1 -4.9 12 13.7 ESE 11 13 6 7 1010.8 1008.5 0.0
18/09:00pm 27.3 22.5 -5.7 11 14.2 SE 11 13 6 7 1010.7 1008.4 0.0
18/08:30pm 29.7 25.0 -5.1 10 15.4 S 11 13 6 7 1010.6 1008.3 0.0
18/08:00pm 30.3 25.1 -6.1 9 15.9 S 13 17 7 9 1010.4 1008.1 0.0
18/07:30pm 32.2 27.2 -4.6 9 16.8 S 13 15 7 8 1010.1 1007.8 0.0
18/07:00pm 35.1 31.3 -4.1 8 18.4 SSE 7 9 4 5 1009.8 1007.6 0.0
18/06:30pm 36.4 32.1 -4.9 7 19.3 ESE 9 13 5 7 1009.6 1007.4 0.0
18/06:00pm 38.7 34.0 -5.3 6 20.8 SE 11 17 6 9 1009.2 1007.0 0.0
18/05:30pm 39.6 34.9 -4.6 6 21.2 E 11 19 6 10 1009.2 1007.0 0.0
18/05:00pm 39.8 35.2 -4.5 6 21.4 ESE 11 20 6 11 1008.9 1006.7 0.0
18/04:30pm 40.5 36.4 -6.4 5 22.0 NW 7 17 4 9 1008.8 1006.5 0.0
18/04:00pm 40.3 34.2 -4.1 6 21.6 SE 19 28 10 15 1008.9 1006.7 0.0
18/03:30pm 40.5 36.7 -4.0 6 21.7 SSE 7 17 4 9 1009.0 1006.8 0.0
18/03:00pm 40.3 34.9 -4.1 6 21.6 S 15 24 8 13 1009.2 1007.0 0.0
18/02:30pm 39.4 35.1 -4.8 6 21.1 NNE 9 19 5 10 1009.7 1007.5 0.0
18/02:00pm 40.4 34.3 -4.1 6 21.7 E 19 26 10 14 1010.2 1007.9 0.0
18/01:30pm 38.6 34.3 -5.3 6 20.7 WNW 9 13 5 7 1010.7 1008.4 0.0
18/01:00pm 38.3 34.3 -5.5 6 20.6 E 7 20 4 11 1011.3 1009.0 0.0
18/12:30pm 38.8 34.3 -3.2 7 20.5 ESE 11 15 6 8 1011.7 1009.4 0.0
18/12:00pm 38.5 34.1 -5.4 6 20.7 ESE 9 13 5 7 1012.2 1010.0 0.0
18/11:30am 37.5 33.7 -4.1 7 19.8 NE 7 19 4 10 1012.5 1010.3 0.0
18/11:00am 37.1 32.5 -4.4 7 19.7 E 11 19 6 10 1012.9 1010.7 0.0

Other formats

Comma delimited format used in spreadsheet applications
http://www.bom.gov.au/fwo/IDQ60801/IDQ60801.94343.axf

JavaScript Object Notation format (JSON) in row-major order
http://www.bom.gov.au/fwo/IDQ60801/IDQ60801.94343.json

Data quality

Most of these data are generated automatically and are frequently updated. Quality checks on data are not normally performed. It is possible for incorrect values to appear. Refer to information at About Latest Weather Observations and please check the disclaimer before using these data.